Decoded Metar for LFOA (AVORD in FRANCE) (IATA:N/A) | Meteo·Mobile Aviation Weather
aviador You're here:

LFOA Decoded Metar

AVORD in FRANCE
Report Time2019-02-23 00:00:00
UTC Time2019-02-23 00:29:24
Flight Rules vfr VFR
Wind060° at 08 kt
W.Decomp.*RWY 06: 8.0 kt HW -0 kt LCW
W.Rank060° ranks 12
Current wind is above 060° avg. (6.6)
Visibility8000 m
Phenomena:N/A
Clouds:N/A
Expected CloudBase > 800 ft AGL from Temp-Dew spread
CeilingNone
Temp08°C (ISA -6)
Dew Point06°C (87% RH)
AAT4.2°C
QNH1032 hPa
Density Alt-623 ft
Elevation587 ft
Report Wrong Elevation
Raw Report
LFOA 230000Z AUTO 06008KT 8000 NSC 08/06 Q1032=

Extra information for LFOA:More info

Metar Taf Metar & Taf Last 4 Metars F.Rules Stats Wind Profile Meteogram Temp Stats Airport Information Weather charts Add Link Nearby VenuesMetar ALERT Operation Metar Decoded Social comments